Time;durP1;ratioP1;P1;durP2;ratioP2;P2;SDS_P1;SDS_P2;PMS_P1;PMS_P2;Temp;Humidity;BMP_temperature;BMP_pressure;BME280_temperature;BME280_humidity;BME280_pressure;Samples;Min_cycle;Max_cycle;Signal;HPM_P1;HPM_P2
2022/10/28 00:01:59;;;;;;;115.90;12.67;;;17.20;68.00;;;;;;5065460;28;20746;-90
2022/10/28 00:04:28;;;;;;;187.40;14.93;;;17.30;68.70;;;;;;5094544;28;20451;-91
2022/10/28 00:06:55;;;;;;;72.83;11.20;;;17.40;68.30;;;;;;5069346;28;20856;-90
2022/10/28 00:09:22;;;;;;;21.67;10.13;;;17.10;69.40;;;;;;5104453;27;20843;-91
2022/10/28 00:11:49;;;;;;;43.93;9.70;;;17.20;69.20;;;;;;5066227;28;20446;-91
2022/10/28 00:14:16;;;;;;;46.23;9.17;;;17.40;67.80;;;;;;5066738;28;20534;-90
2022/10/28 00:16:43;;;;;;;34.93;8.83;;;17.30;67.60;;;;;;5073822;28;20468;-91
2022/10/28 00:19:12;;;;;;;22.60;9.17;;;17.30;68.30;;;;;;5066851;27;20447;-91
2022/10/28 00:21:42;;;;;;;54.57;9.17;;;17.50;68.10;;;;;;5070112;28;20446;-90
2022/10/28 00:24:11;;;;;;;101.67;12.30;;;17.40;67.40;;;;;;5082548;28;21087;-91
2022/10/28 00:26:41;;;;;;;41.67;9.93;;;17.40;67.80;;;;;;5083118;28;20804;-90
2022/10/28 00:29:10;;;;;;;27.30;8.67;;;17.50;67.50;;;;;;5102485;27;20434;-90
2022/10/28 00:31:38;;;;;;;19.83;7.57;;;17.60;67.40;;;;;;5080995;28;20475;-90
2022/10/28 00:34:08;;;;;;;10.87;6.90;;;17.50;67.30;;;;;;5085075;28;20458;-91
2022/10/28 00:36:37;;;;;;;10.20;5.80;;;17.60;66.60;;;;;;5056829;28;20474;-91
2022/10/28 00:39:12;;;;;;;9.40;7.23;;;17.70;66.70;;;;;;5071354;28;20455;-91
2022/10/28 00:41:42;;;;;;;9.67;7.60;;;17.70;66.60;;;;;;5071555;27;20519;-91
2022/10/28 00:44:40;;;;;;;15.63;7.00;;;17.90;66.40;;;;;;5089779;28;20443;-92
2022/10/28 00:47:14;;;;;;;20.53;8.37;;;17.90;66.30;;;;;;5072956;27;20834;-90
2022/10/28 00:49:42;;;;;;;18.97;8.00;;;17.90;65.80;;;;;;5067860;28;20936;-91
2022/10/28 00:52:14;;;;;;;31.17;7.73;;;17.90;65.70;;;;;;5082690;27;20939;-91
2022/10/28 00:54:43;;;;;;;12.17;7.33;;;17.90;66.00;;;;;;5067223;28;20450;-90
2022/10/28 00:57:14;;;;;;;19.60;7.63;;;17.70;66.30;;;;;;5080878;28;20550;-91
2022/10/28 00:59:45;;;;;;;28.30;10.03;;;17.90;66.30;;;;;;5084499;28;20509;-91
2022/10/28 01:02:13;;;;;;;45.40;8.90;;;17.90;66.90;;;;;;5083881;28;20470;-91
2022/10/28 01:04:40;;;;;;;26.73;8.77;;;18.10;65.80;;;;;;5078533;28;20475;-91
2022/10/28 01:07:08;;;;;;;20.93;9.20;;;18.10;65.60;;;;;;5080489;27;20565;-92
2022/10/28 01:09:35;;;;;;;97.50;13.43;;;18.10;65.40;;;;;;5080681;28;20448;-90
2022/10/28 01:12:13;;;;;;;17.27;8.90;;;18.10;65.30;;;;;;5062626;27;20463;-91
2022/10/28 01:14:54;;;;;;;23.97;11.00;;;18.10;65.80;;;;;;5082266;28;20537;-90
2022/10/28 01:17:38;;;;;;;43.40;8.90;;;18.10;65.90;;;;;;5072581;27;20462;-91
2022/10/28 01:20:32;;;;;;;55.67;10.07;;;18.10;65.60;;;;;;5056168;28;20458;-90
2022/10/28 01:23:05;;;;;;;18.43;8.10;;;18.10;65.40;;;;;;5081404;28;20447;-90
2022/10/28 01:26:07;;;;;;;22.97;8.20;;;18.10;65.60;;;;;;5088742;28;20463;-91
2022/10/28 01:29:01;;;;;;;28.23;9.43;;;18.10;65.50;;;;;;5074323;27;20477;-90
2022/10/28 01:31:36;;;;;;;52.20;10.07;;;18.00;65.80;;;;;;5079735;28;20460;-89
2022/10/28 01:34:11;;;;;;;37.73;8.50;;;17.90;66.10;;;;;;5063830;27;20459;-90
2022/10/28 01:36:44;;;;;;;18.10;8.43;;;17.60;66.90;;;;;;5067890;27;20461;-91
2022/10/28 01:39:19;;;;;;;65.43;9.17;;;17.30;67.90;;;;;;5071626;28;20447;-90
2022/10/28 01:41:51;;;;;;;21.57;8.80;;;17.20;67.80;;;;;;5082183;27;20468;-91
2022/10/28 01:44:25;;;;;;;18.53;9.57;;;16.90;69.00;;;;;;5079382;28;20501;-90
2022/10/28 01:47:01;;;;;;;61.03;11.20;;;17.20;68.70;;;;;;5100686;27;20495;-90
2022/10/28 01:49:38;;;;;;;83.83;10.97;;;17.20;68.10;;;;;;5068581;27;20469;-90
2022/10/28 01:52:08;;;;;;;71.27;12.07;;;17.00;68.00;;;;;;5048956;28;20467;-91
2022/10/28 01:54:37;;;;;;;80.20;12.50;;;17.00;68.60;;;;;;5099249;27;20446;-91
2022/10/28 01:57:05;;;;;;;91.30;10.03;;;17.00;69.00;;;;;;5083181;28;20481;-91
2022/10/28 01:59:34;;;;;;;56.47;9.93;;;16.80;69.20;;;;;;5070069;28;20451;-91
2022/10/28 02:02:02;;;;;;;15.03;9.10;;;16.90;68.80;;;;;;5054621;27;20442;-90
2022/10/28 02:04:29;;;;;;;27.73;7.93;;;16.90;69.30;;;;;;5056102;28;21304;-90
2022/10/28 02:07:00;;;;;;;32.03;9.13;;;17.20;68.60;;;;;;5082000;28;21050;-91
2022/10/28 02:09:41;;;;;;;82.37;11.40;;;17.40;67.60;;;;;;5082355;28;20440;-91
2022/10/28 02:12:22;;;;;;;52.57;8.67;;;17.30;67.10;;;;;;5077301;28;21008;-91
2022/10/28 02:15:17;;;;;;;43.83;8.60;;;17.10;67.60;;;;;;5059196;28;20545;-90
2022/10/28 02:17:56;;;;;;;68.00;11.10;;;16.90;69.00;;;;;;5083962;28;20464;-90
2022/10/28 02:20:34;;;;;;;34.87;8.27;;;16.70;69.10;;;;;;5086234;28;20448;-89
2022/10/28 02:23:14;;;;;;;40.53;9.47;;;16.80;69.10;;;;;;5079958;28;20447;-89
2022/10/28 02:25:46;;;;;;;33.20;9.90;;;17.00;68.80;;;;;;5102000;27;20472;-89
2022/10/28 02:28:16;;;;;;;47.57;10.17;;;17.10;68.50;;;;;;5100878;27;20455;-89
2022/10/28 02:30:49;;;;;;;32.97;9.63;;;17.20;68.00;;;;;;5071017;27;20455;-91
2022/10/28 02:33:21;;;;;;;44.67;9.73;;;17.30;67.70;;;;;;5084242;28;20476;-90
2022/10/28 02:35:52;;;;;;;22.23;9.10;;;17.40;67.10;;;;;;5071456;28;20614;-90
2022/10/28 02:38:24;;;;;;;45.27;10.30;;;17.20;68.00;;;;;;5063020;28;20454;-91
2022/10/28 02:40:54;;;;;;;28.67;8.07;;;17.10;68.10;;;;;;5074132;28;21001;-91
2022/10/28 02:43:24;;;;;;;17.03;8.00;;;17.20;68.40;;;;;;5096689;27;20451;-91
2022/10/28 02:45:55;;;;;;;14.60;7.90;;;17.30;68.00;;;;;;5095860;28;20482;-89
2022/10/28 02:48:28;;;;;;;11.03;7.43;;;17.40;67.70;;;;;;5072689;28;20466;-90
2022/10/28 02:51:01;;;;;;;9.83;7.47;;;17.50;67.40;;;;;;5096010;28;20573;-90
2022/10/28 02:53:32;;;;;;;9.03;7.00;;;17.30;68.00;;;;;;5097586;28;20443;-91
2022/10/28 02:56:02;;;;;;;8.93;7.53;;;17.30;67.30;;;;;;5064476;28;20582;-89
2022/10/28 02:58:30;;;;;;;7.00;6.30;;;17.50;67.00;;;;;;5085054;28;20522;-90
2022/10/28 03:00:56;;;;;;;6.87;6.13;;;17.60;66.40;;;;;;5081351;28;20444;-90
2022/10/28 03:03:25;;;;;;;6.60;6.00;;;17.70;66.00;;;;;;5068295;28;20571;-90
2022/10/28 03:05:52;;;;;;;7.37;6.53;;;17.60;65.80;;;;;;5078110;28;20471;-90
2022/10/28 03:08:19;;;;;;;7.37;6.60;;;17.40;66.40;;;;;;5100379;28;20504;-91
2022/10/28 03:10:46;;;;;;;8.50;7.23;;;17.40;66.40;;;;;;5079781;28;20467;-90
2022/10/28 03:13:13;;;;;;;7.93;6.57;;;17.30;66.90;;;;;;5068969;28;20482;-90
2022/10/28 03:15:40;;;;;;;7.73;6.40;;;17.50;66.80;;;;;;5082681;28;20473;-91
2022/10/28 03:18:07;;;;;;;8.67;7.33;;;17.40;66.40;;;;;;5085397;28;20450;-91
2022/10/28 03:20:35;;;;;;;6.17;5.53;;;17.20;67.00;;;;;;5067422;28;20459;-89
2022/10/28 03:23:02;;;;;;;6.93;6.23;;;17.00;67.20;;;;;;5046005;28;20535;-90
2022/10/28 03:25:29;;;;;;;6.70;6.00;;;17.00;67.40;;;;;;5079995;28;20457;-90
2022/10/28 03:27:57;;;;;;;9.50;7.50;;;17.20;67.10;;;;;;5066299;28;20431;-92
2022/10/28 03:30:24;;;;;;;24.77;7.83;;;17.20;66.90;;;;;;5091127;27;20441;-91
2022/10/28 03:32:51;;;;;;;21.97;8.50;;;17.30;66.80;;;;;;5087677;28;20467;-91
2022/10/28 03:35:18;;;;;;;21.00;11.90;;;17.20;67.50;;;;;;5106184;28;20938;-91
2022/10/28 03:37:46;;;;;;;41.57;13.70;;;17.20;67.40;;;;;;5087503;28;20551;-91
2022/10/28 03:40:13;;;;;;;18.37;9.57;;;17.30;67.00;;;;;;5069675;28;20471;-91
2022/10/28 03:42:41;;;;;;;22.13;10.40;;;17.30;67.00;;;;;;5070709;27;20480;-90
2022/10/28 03:45:09;;;;;;;53.23;14.43;;;17.30;67.40;;;;;;5084203;27;20459;-91
2022/10/28 03:47:36;;;;;;;25.63;16.60;;;17.40;66.70;;;;;;5068844;27;20462;-90
2022/10/28 03:50:04;;;;;;;24.30;13.93;;;17.50;66.90;;;;;;5082978;28;20984;-90
2022/10/28 03:52:31;;;;;;;11.13;8.60;;;17.50;66.50;;;;;;5106746;27;20474;-90
2022/10/28 03:55:00;;;;;;;10.77;8.80;;;17.40;66.70;;;;;;5086690;28;20543;-90
2022/10/28 03:57:30;;;;;;;15.20;7.90;;;17.30;67.10;;;;;;5095652;28;20479;-90
2022/10/28 03:59:57;;;;;;;12.77;7.73;;;17.40;67.00;;;;;;5103159;27;20434;-90
2022/10/28 04:02:25;;;;;;;10.00;8.00;;;17.40;66.50;;;;;;5071461;28;20444;-90
2022/10/28 04:04:52;;;;;;;15.10;13.60;;;17.20;67.00;;;;;;5068063;28;20516;-90
2022/10/28 04:07:19;;;;;;;12.70;10.23;;;17.20;67.20;;;;;;5074757;28;21080;-90
2022/10/28 04:09:48;;;;;;;12.87;10.90;;;17.30;67.10;;;;;;5093308;27;20488;-90
2022/10/28 04:12:17;;;;;;;18.77;16.93;;;17.30;67.10;;;;;;5068218;28;20473;-91
2022/10/28 04:14:44;;;;;;;10.93;9.03;;;17.50;66.70;;;;;;5068038;28;20982;-91
2022/10/28 04:17:11;;;;;;;18.30;9.40;;;17.50;66.40;;;;;;5098123;27;20500;-91
2022/10/28 04:19:38;;;;;;;17.43;15.63;;;17.50;66.50;;;;;;5061608;28;20451;-91
2022/10/28 04:22:05;;;;;;;42.17;16.97;;;17.50;66.60;;;;;;5077312;27;20442;-91
2022/10/28 04:24:32;;;;;;;26.17;10.17;;;17.60;66.30;;;;;;5061558;28;21122;-91
2022/10/28 04:26:58;;;;;;;13.10;8.80;;;17.60;66.30;;;;;;5091275;27;20451;-90
2022/10/28 04:29:27;;;;;;;15.60;8.83;;;17.50;66.30;;;;;;5076017;28;20965;-89
2022/10/28 04:31:54;;;;;;;49.13;24.20;;;17.60;66.20;;;;;;5057962;27;20872;-90
2022/10/28 04:34:21;;;;;;;12.83;10.13;;;17.50;66.30;;;;;;5070376;27;20457;-92
2022/10/28 04:36:48;;;;;;;19.60;11.40;;;17.50;66.10;;;;;;5073184;27;20982;-90
2022/10/28 04:39:15;;;;;;;11.40;8.63;;;17.60;66.10;;;;;;5072118;27;20455;-89
2022/10/28 04:41:42;;;;;;;12.83;8.70;;;17.40;66.10;;;;;;5068398;27;21025;-90
2022/10/28 04:44:09;;;;;;;13.83;9.37;;;17.30;66.80;;;;;;5055538;28;20858;-90
2022/10/28 04:46:37;;;;;;;12.97;8.57;;;17.20;66.70;;;;;;5056662;27;20475;-89
2022/10/28 04:49:04;;;;;;;10.60;8.60;;;17.30;66.80;;;;;;5054657;27;20454;-89
2022/10/28 04:51:32;;;;;;;14.00;8.83;;;17.40;66.40;;;;;;5057987;28;20507;-89
2022/10/28 04:53:59;;;;;;;19.10;8.57;;;17.50;66.30;;;;;;5052908;27;20443;-90
2022/10/28 04:56:26;;;;;;;13.90;7.70;;;17.60;66.00;;;;;;5066449;28;20492;-90
2022/10/28 04:58:53;;;;;;;11.50;8.10;;;17.60;66.00;;;;;;5075216;27;20478;-90
2022/10/28 05:01:20;;;;;;;12.43;8.47;;;17.60;65.70;;;;;;5092710;27;20497;-90
2022/10/28 05:03:48;;;;;;;16.30;9.30;;;17.50;65.80;;;;;;5064878;28;20455;-89
2022/10/28 05:06:15;;;;;;;13.30;8.30;;;17.10;66.80;;;;;;5046411;28;20625;-91
2022/10/28 05:08:42;;;;;;;12.70;8.60;;;17.00;67.80;;;;;;5074986;27;20592;-91
2022/10/28 05:11:09;;;;;;;13.47;8.50;;;17.20;67.50;;;;;;5043984;27;20455;-90
2022/10/28 05:13:36;;;;;;;14.53;9.50;;;17.30;66.70;;;;;;5061251;28;20444;-90
2022/10/28 05:16:04;;;;;;;10.53;9.00;;;17.40;66.60;;;;;;5046287;27;20551;-91
2022/10/28 05:18:31;;;;;;;10.80;8.70;;;17.10;67.10;;;;;;5060324;27;20458;-90
2022/10/28 05:20:59;;;;;;;10.67;8.10;;;17.10;67.30;;;;;;5054103;27;20446;-89
2022/10/28 05:23:26;;;;;;;10.67;8.60;;;17.10;67.60;;;;;;5048959;27;21018;-90
2022/10/28 05:25:53;;;;;;;9.80;8.07;;;17.20;67.30;;;;;;5048260;27;20467;-90
2022/10/28 05:28:21;;;;;;;9.20;8.23;;;17.10;67.50;;;;;;5075049;27;20451;-91
2022/10/28 05:30:48;;;;;;;14.03;9.53;;;17.30;66.80;;;;;;5054657;28;21153;-90
2022/10/28 05:33:15;;;;;;;11.33;7.60;;;17.30;66.50;;;;;;5078851;27;21056;-89
2022/10/28 05:35:42;;;;;;;13.43;9.20;;;17.40;66.30;;;;;;5060820;28;20455;-91
2022/10/28 05:38:10;;;;;;;26.47;20.57;;;17.30;66.30;;;;;;5075271;28;20450;-90
2022/10/28 05:40:37;;;;;;;21.77;18.13;;;17.40;66.20;;;;;;5090726;28;20853;-92
2022/10/28 05:43:05;;;;;;;43.80;37.00;;;17.40;66.30;;;;;;5073891;27;20439;-89
2022/10/28 05:45:32;;;;;;;23.40;17.40;;;17.40;65.90;;;;;;5057116;28;20444;-90
2022/10/28 05:47:59;;;;;;;10.33;8.90;;;17.40;66.40;;;;;;5073820;28;20444;-91
2022/10/28 05:50:26;;;;;;;8.67;7.80;;;17.50;66.00;;;;;;5092072;27;20455;-90
2022/10/28 05:52:55;;;;;;;16.10;13.97;;;17.60;65.60;;;;;;5075326;28;20482;-91
2022/10/28 05:55:27;;;;;;;13.20;11.90;;;17.50;65.30;;;;;;5092114;27;20519;-90
2022/10/28 05:57:54;;;;;;;11.80;8.20;;;17.40;66.10;;;;;;5046110;28;20711;-90
2022/10/28 06:00:22;;;;;;;8.67;7.87;;;17.40;66.10;;;;;;5089779;27;20811;-91
2022/10/28 06:02:50;;;;;;;10.60;8.83;;;17.40;66.50;;;;;;5072132;28;20440;-90
2022/10/28 06:05:17;;;;;;;8.67;7.47;;;17.30;66.50;;;;;;5051787;27;20455;-90
2022/10/28 06:07:44;;;;;;;14.70;12.63;;;17.20;66.90;;;;;;5074023;28;20473;-90
2022/10/28 06:10:11;;;;;;;11.50;8.70;;;17.20;66.90;;;;;;5091346;27;20938;-90
2022/10/28 06:12:40;;;;;;;20.57;16.10;;;17.30;66.40;;;;;;5044165;27;20473;-90
2022/10/28 06:15:07;;;;;;;23.77;18.63;;;17.40;66.10;;;;;;5047007;28;20452;-91
2022/10/28 06:17:34;;;;;;;13.33;10.00;;;17.50;65.90;;;;;;5078841;28;20559;-89
2022/10/28 06:20:01;;;;;;;13.50;8.93;;;17.60;65.60;;;;;;5097540;27;20446;-91
2022/10/28 06:22:28;;;;;;;8.70;7.60;;;17.60;65.40;;;;;;5063284;28;20451;-91
2022/10/28 06:24:55;;;;;;;9.97;8.07;;;17.70;65.40;;;;;;5080540;28;21041;-92
2022/10/28 06:27:22;;;;;;;10.20;8.00;;;17.70;65.40;;;;;;5090302;28;20478;-90
2022/10/28 06:29:51;;;;;;;10.23;8.83;;;17.50;65.80;;;;;;5072032;28;20805;-89
2022/10/28 06:32:18;;;;;;;11.50;8.70;;;17.30;66.30;;;;;;5091659;27;20978;-90
2022/10/28 06:34:45;;;;;;;9.83;8.03;;;17.20;66.70;;;;;;5046565;28;20539;-91
2022/10/28 06:37:13;;;;;;;11.30;7.70;;;17.00;67.50;;;;;;5074340;28;20854;-90
2022/10/28 06:39:40;;;;;;;12.03;9.17;;;17.20;68.20;;;;;;5064466;27;20448;-91
2022/10/28 06:42:07;;;;;;;12.70;8.50;;;17.20;67.40;;;;;;5058463;28;20446;-89
2022/10/28 06:44:34;;;;;;;9.47;7.77;;;17.00;67.60;;;;;;5063580;28;20501;-90
2022/10/28 06:47:02;;;;;;;10.70;8.27;;;16.90;67.80;;;;;;5057035;28;20573;-89
2022/10/28 06:49:29;;;;;;;9.60;8.70;;;16.90;68.30;;;;;;5061599;27;20470;-90
2022/10/28 06:51:56;;;;;;;9.60;7.80;;;16.90;68.30;;;;;;5098039;27;20576;-89
2022/10/28 06:54:23;;;;;;;15.20;9.80;;;17.10;67.70;;;;;;5080167;28;20971;-90
2022/10/28 06:56:50;;;;;;;13.20;10.50;;;17.20;67.50;;;;;;5056847;28;20478;-91
2022/10/28 06:59:17;;;;;;;10.90;9.10;;;17.30;66.90;;;;;;5067191;28;20448;-90
2022/10/28 07:01:44;;;;;;;10.30;8.80;;;17.30;66.50;;;;;;5059666;28;20447;-90
2022/10/28 07:04:13;;;;;;;19.33;11.33;;;17.30;66.70;;;;;;5073070;28;20961;-89
2022/10/28 07:06:40;;;;;;;12.53;11.20;;;17.30;66.40;;;;;;5072971;28;20475;-91
2022/10/28 07:09:07;;;;;;;15.33;10.27;;;17.30;66.70;;;;;;5053217;28;20477;-90
2022/10/28 07:11:34;;;;;;;13.83;9.40;;;17.40;66.30;;;;;;5043947;28;20447;-90
2022/10/28 07:14:02;;;;;;;17.87;12.30;;;17.40;65.70;;;;;;5058077;28;21006;-89
2022/10/28 07:16:29;;;;;;;20.70;10.37;;;17.20;66.10;;;;;;5075679;28;20467;-90
2022/10/28 07:18:56;;;;;;;11.90;10.47;;;17.10;66.30;;;;;;5049121;28;20443;-91
2022/10/28 07:21:27;;;;;;;12.50;9.03;;;16.90;67.10;;;;;;5075197;28;20448;-90
2022/10/28 07:23:55;;;;;;;11.20;8.83;;;17.10;66.90;;;;;;5056810;28;20447;-90
2022/10/28 07:26:23;;;;;;;12.13;10.60;;;17.00;66.90;;;;;;5049883;28;20466;-90
2022/10/28 07:28:50;;;;;;;14.60;9.00;;;17.00;67.70;;;;;;5056258;28;20544;-90
2022/10/28 07:31:17;;;;;;;11.27;10.17;;;17.20;66.80;;;;;;5095562;28;20990;-91
2022/10/28 07:33:44;;;;;;;11.67;9.23;;;17.10;67.00;;;;;;5057148;28;21968;-89
2022/10/28 07:36:12;;;;;;;12.17;9.00;;;17.30;67.10;;;;;;5062176;28;20471;-90
2022/10/28 07:38:41;;;;;;;13.30;8.53;;;17.40;66.70;;;;;;5072009;28;20478;-89
2022/10/28 07:41:10;;;;;;;9.00;8.10;;;17.30;67.40;;;;;;5041313;28;21226;-89
2022/10/28 07:43:37;;;;;;;10.73;9.63;;;17.10;68.00;;;;;;5035929;28;20459;-89
2022/10/28 07:46:05;;;;;;;9.73;7.90;;;17.30;67.90;;;;;;5074813;28;20469;-91
2022/10/28 07:48:32;;;;;;;11.43;8.30;;;17.50;67.40;;;;;;5071611;28;21009;-90
2022/10/28 07:51:01;;;;;;;9.67;7.97;;;17.70;66.90;;;;;;5093269;28;20448;-91
2022/10/28 07:53:28;;;;;;;10.57;8.83;;;17.80;66.50;;;;;;5094676;28;20478;-90
2022/10/28 07:55:58;;;;;;;10.33;8.73;;;17.70;68.10;;;;;;5059372;28;20558;-90
2022/10/28 07:58:25;;;;;;;12.77;7.87;;;17.70;67.30;;;;;;5081398;28;20525;-88
2022/10/28 08:00:52;;;;;;;9.73;7.80;;;17.80;66.90;;;;;;5043774;28;21017;-90
2022/10/28 08:03:19;;;;;;;9.70;7.90;;;18.00;66.40;;;;;;5060696;28;20939;-90
2022/10/28 08:05:47;;;;;;;14.47;9.30;;;18.00;65.70;;;;;;5060208;28;20448;-91
2022/10/28 08:08:14;;;;;;;9.90;7.80;;;18.10;65.80;;;;;;5055047;28;20454;-90
2022/10/28 08:10:41;;;;;;;8.60;7.73;;;18.20;65.90;;;;;;5076056;28;20478;-90
2022/10/28 08:13:11;;;;;;;12.03;8.70;;;18.30;65.70;;;;;;5045885;28;21085;-91
2022/10/28 08:15:38;;;;;;;11.73;8.63;;;18.30;65.70;;;;;;5062837;27;20974;-90
2022/10/28 08:18:05;;;;;;;11.10;9.03;;;18.30;66.00;;;;;;5060142;27;20445;-90
2022/10/28 08:20:32;;;;;;;13.20;9.17;;;18.20;66.40;;;;;;5092937;27;20546;-91
2022/10/28 08:22:59;;;;;;;11.10;8.20;;;18.20;66.60;;;;;;5095936;27;20438;-89
2022/10/28 08:25:26;;;;;;;14.20;8.60;;;18.20;66.40;;;;;;5080009;28;20514;-90
2022/10/28 08:27:53;;;;;;;9.43;8.53;;;18.30;67.10;;;;;;5077947;27;20572;-90
2022/10/28 08:30:22;;;;;;;9.77;7.87;;;18.40;66.90;;;;;;5061413;28;20444;-90
2022/10/28 08:32:49;;;;;;;9.90;8.20;;;18.50;66.60;;;;;;5060738;28;20462;-90
2022/10/28 08:35:16;;;;;;;10.53;8.23;;;18.50;66.10;;;;;;5044258;28;20477;-88
2022/10/28 08:37:44;;;;;;;14.30;8.97;;;18.50;65.90;;;;;;5064191;27;20567;-91
2022/10/28 08:40:13;;;;;;;10.30;9.07;;;18.60;66.10;;;;;;5061999;28;20451;-90
2022/10/28 08:42:46;;;;;;;13.33;11.07;;;18.60;66.40;;;;;;5074199;27;20439;-90
2022/10/28 08:45:23;;;;;;;13.20;10.00;;;18.30;67.50;;;;;;5077819;27;20917;-90
2022/10/28 08:48:02;;;;;;;12.13;8.83;;;18.40;67.60;;;;;;5082681;28;20477;-90
2022/10/28 08:50:32;;;;;;;12.33;10.50;;;18.60;67.40;;;;;;5060515;27;20873;-91
2022/10/28 08:53:05;;;;;;;13.27;9.40;;;18.60;67.30;;;;;;5094924;27;20464;-90
2022/10/28 08:55:36;;;;;;;13.53;9.07;;;18.80;67.20;;;;;;5077027;27;20454;-89
2022/10/28 08:58:10;;;;;;;10.10;8.70;;;18.90;66.90;;;;;;5064170;27;20538;-90
2022/10/28 09:00:39;;;;;;;13.80;8.90;;;19.00;66.60;;;;;;5067058;27;20455;-90
2022/10/28 09:03:19;;;;;;;10.50;9.40;;;19.10;66.20;;;;;;5094062;27;20431;-91
2022/10/28 09:05:49;;;;;;;11.07;7.70;;;18.90;65.90;;;;;;5063055;27;20455;-89
2022/10/28 09:08:23;;;;;;;12.23;9.07;;;18.60;67.30;;;;;;5072781;28;20942;-89
2022/10/28 09:11:08;;;;;;;12.90;9.60;;;18.50;68.30;;;;;;5056424;28;20452;-90
2022/10/28 09:13:49;;;;;;;17.10;9.00;;;18.70;68.30;;;;;;5072527;27;20474;-89
2022/10/28 09:16:25;;;;;;;11.90;8.60;;;18.80;68.10;;;;;;5089102;27;20470;-88
2022/10/28 09:18:54;;;;;;;10.73;8.10;;;18.70;68.60;;;;;;5090415;27;20462;-89
2022/10/28 09:21:30;;;;;;;13.00;8.77;;;18.80;68.20;;;;;;5073599;28;20850;-91
2022/10/28 09:23:58;;;;;;;12.00;8.43;;;19.00;67.90;;;;;;5088804;27;20444;-90
2022/10/28 09:26:35;;;;;;;14.50;9.00;;;19.10;67.60;;;;;;5057751;27;20478;-89
2022/10/28 09:29:15;;;;;;;10.73;8.37;;;19.20;67.60;;;;;;5091040;27;20434;-90
2022/10/28 09:31:46;;;;;;;15.17;9.10;;;19.30;66.90;;;;;;5063831;27;20444;-90
2022/10/28 09:34:24;;;;;;;14.77;8.97;;;19.30;67.00;;;;;;5088730;27;20491;-91
2022/10/28 09:36:55;;;;;;;11.23;9.80;;;19.40;67.00;;;;;;5072264;28;20565;-89
2022/10/28 09:39:27;;;;;;;12.80;9.70;;;19.40;66.90;;;;;;5091058;27;21253;-89
2022/10/28 09:41:58;;;;;;;18.93;10.20;;;19.40;66.80;;;;;;5090328;27;20543;-89
2022/10/28 09:44:32;;;;;;;12.87;9.67;;;19.30;67.20;;;;;;5091174;27;20527;-88
2022/10/28 09:47:02;;;;;;;20.70;14.10;;;19.50;66.90;;;;;;5060210;28;20470;-90
2022/10/28 09:49:34;;;;;;;15.87;12.97;;;19.50;66.40;;;;;;5088641;27;20440;-89
2022/10/28 09:52:08;;;;;;;16.30;11.83;;;19.60;66.30;;;;;;5071330;28;20449;-91
2022/10/28 09:54:37;;;;;;;15.97;11.17;;;19.70;66.30;;;;;;5090689;28;20471;-89
2022/10/28 09:57:05;;;;;;;20.63;13.97;;;19.70;66.10;;;;;;5080535;28;20481;-89
2022/10/28 09:59:33;;;;;;;13.27;10.70;;;19.80;66.60;;;;;;5061350;27;20451;-90
2022/10/28 10:02:04;;;;;;;13.50;9.60;;;19.60;66.60;;;;;;5072915;28;20455;-90
2022/10/28 10:04:31;;;;;;;14.13;9.40;;;19.70;66.80;;;;;;5074695;28;20443;-90
2022/10/28 10:07:00;;;;;;;15.37;8.83;;;19.70;66.70;;;;;;5075800;28;21032;-89
2022/10/28 10:09:34;;;;;;;11.47;9.60;;;19.70;66.40;;;;;;5091766;27;20924;-90
2022/10/28 10:12:05;;;;;;;9.13;8.33;;;19.80;66.30;;;;;;5082077;28;20459;-90
2022/10/28 10:14:38;;;;;;;10.17;8.37;;;19.80;65.70;;;;;;5074263;28;20514;-90
2022/10/28 10:17:12;;;;;;;13.87;9.53;;;19.70;66.10;;;;;;5092524;27;21067;-90
2022/10/28 10:20:00;;;;;;;14.07;9.40;;;19.80;66.00;;;;;;5065352;27;20458;-91
2022/10/28 10:22:32;;;;;;;8.93;7.97;;;19.90;65.40;;;;;;5096273;27;20823;-90
2022/10/28 10:24:59;;;;;;;10.30;9.17;;;19.90;64.90;;;;;;5064576;27;20969;-89
2022/10/28 10:27:28;;;;;;;10.60;8.20;;;20.00;64.80;;;;;;5072017;28;21138;-90
2022/10/28 10:29:56;;;;;;;11.87;10.10;;;19.90;64.30;;;;;;5059736;28;20867;-89
2022/10/28 10:32:28;;;;;;;18.70;11.37;;;19.80;65.10;;;;;;5064631;27;20466;-90
2022/10/28 10:35:02;;;;;;;13.40;8.50;;;19.90;64.90;;;;;;5056825;28;20467;-90
2022/10/28 10:37:33;;;;;;;12.53;9.23;;;20.10;64.80;;;;;;5058890;28;20585;-89
2022/10/28 10:40:17;;;;;;;15.23;9.00;;;20.10;64.70;;;;;;5071707;28;21237;-90
2022/10/28 10:42:45;;;;;;;11.60;9.83;;;20.20;64.60;;;;;;5076172;28;20866;-90
2022/10/28 10:45:23;;;;;;;18.83;8.90;;;20.30;64.60;;;;;;5063718;27;21044;-90
2022/10/28 10:48:07;;;;;;;14.30;8.63;;;20.30;64.60;;;;;;5058514;28;20573;-91
2022/10/28 10:50:36;;;;;;;13.40;8.57;;;20.30;64.90;;;;;;5075735;28;21229;-90
2022/10/28 10:53:04;;;;;;;15.00;10.50;;;20.30;64.70;;;;;;5062051;28;20467;-90
2022/10/28 10:55:35;;;;;;;14.20;9.03;;;20.40;65.00;;;;;;5095540;27;20985;-90
2022/10/28 10:58:02;;;;;;;12.57;8.57;;;20.50;64.80;;;;;;5058947;28;20466;-89
2022/10/28 11:00:35;;;;;;;14.03;8.90;;;20.40;64.70;;;;;;5075824;28;20438;-90
2022/10/28 11:03:05;;;;;;;11.80;8.50;;;20.30;64.80;;;;;;5073719;28;20566;-89
2022/10/28 11:05:33;;;;;;;11.40;8.70;;;20.20;65.00;;;;;;5055683;28;21143;-89
2022/10/28 11:08:03;;;;;;;12.43;8.77;;;19.90;66.20;;;;;;5070279;28;20456;-89
2022/10/28 11:10:33;;;;;;;10.40;7.63;;;19.80;66.60;;;;;;5054484;28;20854;-90
2022/10/28 11:13:04;;;;;;;9.80;7.90;;;19.80;67.20;;;;;;5071516;28;20451;-90
2022/10/28 11:15:32;;;;;;;9.63;7.43;;;20.10;66.10;;;;;;5074268;28;20525;-90
2022/10/28 11:18:01;;;;;;;8.93;7.20;;;20.30;65.30;;;;;;5061299;28;20524;-89
2022/10/28 11:20:39;;;;;;;10.27;7.50;;;20.40;64.80;;;;;;5059443;28;21081;-87
2022/10/28 11:23:17;;;;;;;8.20;6.80;;;20.60;64.80;;;;;;5084282;28;21291;-90
2022/10/28 11:25:46;;;;;;;12.00;7.60;;;20.70;64.30;;;;;;5065197;28;20442;-90
2022/10/28 11:28:36;;;;;;;15.30;8.00;;;20.90;64.50;;;;;;5076649;28;20467;-91
2022/10/28 11:31:28;;;;;;;13.40;8.40;;;21.00;64.20;;;;;;5056239;28;20442;-91
2022/10/28 11:34:13;;;;;;;10.20;7.30;;;21.10;63.60;;;;;;5044716;28;20999;-88
2022/10/28 11:36:51;;;;;;;10.43;8.50;;;21.20;63.80;;;;;;5072712;28;20475;-91
2022/10/28 11:39:23;;;;;;;10.23;7.03;;;21.20;62.20;;;;;;5059625;28;20931;-90
2022/10/28 11:42:08;;;;;;;14.20;8.20;;;21.30;63.10;;;;;;5059140;28;20536;-91
2022/10/28 11:44:46;;;;;;;9.43;7.77;;;21.30;63.00;;;;;;5065883;28;20458;-91
2022/10/28 11:47:36;;;;;;;9.43;7.33;;;21.60;63.50;;;;;;5070911;28;20478;-91
2022/10/28 11:50:24;;;;;;;10.80;7.70;;;21.70;61.40;;;;;;5098592;27;20478;-90
2022/10/28 11:53:17;;;;;;;16.50;7.03;;;21.60;61.60;;;;;;5066206;28;20513;-90
2022/10/28 11:55:51;;;;;;;11.87;8.13;;;21.50;62.90;;;;;;5094157;27;22181;-89
2022/10/28 11:58:30;;;;;;;10.33;6.90;;;21.70;63.20;;;;;;5061920;28;20469;-90
2022/10/28 12:01:09;;;;;;;11.53;7.20;;;21.70;63.00;;;;;;5077955;28;20444;-88
2022/10/28 12:03:52;;;;;;;8.60;6.50;;;22.00;63.10;;;;;;5084783;28;20451;-91
2022/10/28 12:06:35;;;;;;;9.23;6.70;;;22.30;61.80;;;;;;5080708;27;20470;-91
2022/10/28 12:09:13;;;;;;;7.30;6.60;;;22.40;61.00;;;;;;5058208;28;20824;-90
2022/10/28 12:12:05;;;;;;;15.67;7.10;;;22.40;61.10;;;;;;5094429;27;20483;-90
2022/10/28 12:14:40;;;;;;;6.80;6.10;;;22.40;61.20;;;;;;5047766;28;21025;-90
2022/10/28 12:17:16;;;;;;;7.07;6.30;;;22.40;61.60;;;;;;5095847;28;21066;-91
2022/10/28 12:19:46;;;;;;;8.43;6.07;;;22.50;61.30;;;;;;5077078;28;20989;-91
2022/10/28 12:22:21;;;;;;;10.73;7.43;;;22.60;61.40;;;;;;5067465;28;20959;-90
2022/10/28 12:24:53;;;;;;;6.33;5.73;;;22.80;61.30;;;;;;5085253;28;20443;-89
2022/10/28 12:27:23;;;;;;;11.67;5.90;;;22.90;61.90;;;;;;5095738;27;20459;-90
2022/10/28 12:29:55;;;;;;;6.50;5.83;;;23.00;60.90;;;;;;5086507;27;20458;-90
2022/10/28 12:32:26;;;;;;;8.43;7.20;;;23.10;60.80;;;;;;5079135;27;21023;-90
2022/10/28 12:35:01;;;;;;;9.00;5.70;;;23.10;60.50;;;;;;5077628;28;20464;-90
2022/10/28 12:37:36;;;;;;;10.93;6.40;;;22.90;60.50;;;;;;5060726;28;21096;-90
2022/10/28 12:40:12;;;;;;;10.53;6.67;;;22.80;61.00;;;;;;5044542;27;20451;-90
2022/10/28 12:42:43;;;;;;;6.97;6.00;;;23.00;60.90;;;;;;5075974;28;20513;-90
2022/10/28 12:45:14;;;;;;;8.83;6.60;;;23.10;60.90;;;;;;5095861;27;20515;-90
2022/10/28 12:47:46;;;;;;;13.73;5.73;;;23.40;60.80;;;;;;5098358;27;20479;-90
2022/10/28 12:50:22;;;;;;;8.33;5.93;;;23.60;60.40;;;;;;5076470;28;20450;-90
2022/10/28 12:52:58;;;;;;;7.90;5.10;;;23.90;59.40;;;;;;5094064;27;20950;-90
2022/10/28 12:55:33;;;;;;;13.83;5.73;;;23.80;59.30;;;;;;5093685;28;21686;-88